Notice: Undefined index: language in /home/spanairv/public_html/vam/index.php on line 25
Spanair Virtual

 INFORMACIÓN METAR y TAF
METAR FOR LEZL
ADDS - METARS form results

(0037 UTC 25 April 2018)
Data provider http://aviationweather.gov/adds/metars/
 
METAR text: LEZL 250030Z AUTO 20005KT 170V250 9999 NCD 17/13 Q1014
Conditions at: LEZL (SEVILLA (CIV/MIL, ES) observed 0030 UTC 25 April 2018
Temperature: 17.0°C (63°F)
Dewpoint: 13.0°C (55°F) [RH = 77%]
Pressure (altimeter): 29.94 inches Hg (1014.0 mb)
Winds: from the SSW (200 degrees) at 6 MPH (5 knots; 2.6 m/s)
Visibility: 6 or more miles (10+ km)
Ceiling: at least 12,000 feet AGL
Clouds: sky clear below 12,000 feet AGL
Weather: no significant weather observed at this time

METAR text: LEZL 250000Z AUTO 20004KT 160V260 9999 NCD 17/14 Q1014
Conditions at: LEZL (SEVILLA (CIV/MIL, ES) observed 0000 UTC 25 April 2018
Temperature: 17.0°C (63°F)
Dewpoint: 14.0°C (57°F) [RH = 82%]
Pressure (altimeter): 29.94 inches Hg (1014.0 mb)
Winds: from the SSW (200 degrees) at 5 MPH (4 knots; 2.1 m/s)
Visibility: 6 or more miles (10+ km)
Ceiling: at least 12,000 feet AGL
Clouds: sky clear below 12,000 feet AGL
Weather: no significant weather observed at this time

Forecast for: LEZL (SEVILLA (CIV/MIL, ES)
Text: TAF LEZL 242000Z 2421/2521 18007KT 9999 FEW045 TX27/2515Z TN13/2506Z
Forecast period: 2100 UTC 24 April 2018 to 2100 UTC 25 April 2018
Forecast type: FROM: standard forecast or significant change
Winds: from the S (180 degrees) at 8 MPH (7 knots; 3.6 m/s)
Visibility: 6 or more miles (10+ km)
Clouds: few clouds at 4500 feet AGL
Weather: no significant weather forecast for this period
Forecast for: LEZL (SEVILLA (CIV/MIL, ES)
Text: TAF LEZL 242000Z 2421/2521 18007KT 9999 FEW045 TX27/2515Z TN13/2506Z
Forecast period: 2100 UTC 24 April 2018 to 2100 UTC 25 April 2018
Forecast type: FROM: standard forecast or significant change
Winds: from the S (180 degrees) at 8 MPH (7 knots; 3.6 m/s)
Visibility: 6 or more miles (10+ km)
Clouds: few clouds at 4500 feet AGL
Weather: no significant weather forecast for this period
Forecast for: LEZL (SEVILLA (CIV/MIL, ES)
Text: TAF LEZL 242000Z 2421/2521 18007KT 9999 FEW045 TX27/2515Z TN13/2506Z
Forecast period: 2100 to 2300 UTC 24 April 2018
Forecast type: TEMPORARY: The following changes expected for less than half the time period
Winds: from the W (260 degrees) at 17 MPH (15 knots; 7.8 m/s)
gusting to 32 MPH (28 knots; 14.6 m/s)
Clouds: scattered clouds at 2500 feet AGL
scattered clouds at 3500 feet AGL
Weather: SHRA TS  (rain showers, thunderstorm)
Forecast for: LEZL (SEVILLA (CIV/MIL, ES)
Text: TAF LEZL 242000Z 2421/2521 18007KT 9999 FEW045 TX27/2515Z TN13/2506Z
Forecast period: 2100 to 2300 UTC 24 April 2018
Forecast type: TEMPORARY: The following changes expected for less than half the time period
Winds: from the W (260 degrees) at 17 MPH (15 knots; 7.8 m/s)
gusting to 32 MPH (28 knots; 14.6 m/s)
Clouds: scattered clouds at 2500 feet AGL
scattered clouds at 3500 feet AGL
Weather: SHRA TS  (rain showers, thunderstorm)

 MAPA DE AEROPUERTO

 INFORMACIÓN DE PISTA
Pista 09 Longitud 11024 ft Ancho 148 ft
Elevación 83 ft Umbral desplazado 0 ft Rumbo de pista 90
Pista 27 Longitud 11024 ft Ancho 148 ft
Elevación 111 ft Umbral desplazado 0 ft Rumbo de pista 270

 FRECUANCIAS DEL AEROPUERTO
Tipo APP Nombre APP Frecuencia 120 MHZ
Tipo ATIS Nombre ATIS Frecuencia 118.175 MHZ
Tipo GND Nombre GND Frecuencia 121.7 MHZ
Tipo TWR Nombre TWR Frecuencia 118.1 MHZ

 RADIO AYUDAS DEL AEROPUERTO
Tipo NDB Nombre Sevilla Frecuencia 420 KHZ
Tipo VOR-DME Nombre Sevilla Frecuencia 113700 KHZ





VAM [v2.6.2]

Normativa | Spanair Virtual © 2017 | Customized by JZ © 2017 for Spanair Virtual